Terminal Aerodrome Forecast
Issued by NWS

Home | Current Version | Previous Version | Text Only | Print | Product List | Glossary On
Versions: 1 2 3 4 5 6 7 8 9 10 11 12 13 14 15 16
000
FTUS43 KGRB 060300 AAA
TAFCWA
TAF AMD
KCWA 060307Z 0603/0624 10005KT P6SM BKN040 OVC070
     FM060500 11005KT P6SM -SHRA SCT020 OVC035
     FM060800 12007KT P6SM BKN012 OVC020
     FM062100 13008KT P6SM SCT025
      AMD LTD TO CLD VIS AND WIND TIL 061100=

USA.gov is the U.S. government's official web portal to all federal, state and local government web resources and services.